Landels-Hill Big Creek Reserve Entrance, California Weather observations

Data are for 10 minute period ending at time listed.
 Day   Time   Solar   Ave.   Ave.  Ave.  Vector  Max.   Baro.   Total    
  of    of     Rad.   Air    Rel.  Wind   Wind   Wind  Press.  Precip.   
Year   Day            Temp.  Hum.  Speed  Dir.   Gust                    
2015   (PST)  Kw/m2    F      %     mph   deg.    mph    mb.     in.     
-------------------------------------------------------------------------
 115    5:20   0.00   55.0    96    1.1   127     3.1   1011.3    0.03 
 115    5:30   0.00   55.1    96    1.1    44     3.8   1011.1    0.07 
 115    5:40   0.00   55.1    96    2.3    78     8.6   1011.1    0.08 
 115    5:50   0.01   55.3    96    1.7    88     4.7   1011.0    0.06 
 115    6:00   0.00   55.1    96    1.1   255     5.3   1011.0    0.05 
 115    6:10   0.01   54.9    96    1.5   273     5.5   1010.9    0.06 
 115    6:20   0.01   55.0    97    4.0    78    10.8   1011.0    0.03 
 115    6:30   0.01   55.0    97    7.7   116    14.8   1011.0    0.01 
 115    6:40   0.01   55.1    97    5.3   150    16.1   1011.0    0.01 
 115    6:50   0.01   55.4    97    4.9   152    12.2   1010.9    0.00 
 115    7:00   0.02   55.5    97    3.5   157     9.3   1011.0    0.00 
 115    7:10   0.04   55.4    97    3.4   159    11.7   1011.0    0.00 
 115    7:20   0.07   55.2    97    2.3   115     6.4   1011.0    0.00 
 115    7:30   0.08   55.4    97    2.4   141     5.4   1011.1    0.00 
 115    7:40   0.10   55.5    96    3.1    97     8.4   1011.1    0.00 
 115    7:50   0.12   55.9    94    2.3   101     8.3   1011.2    0.00 
 115    8:00   0.14   56.3    92    2.1   183     4.8   1011.1    0.00 
 115    8:10   0.13   56.2    92    1.9   174     5.9   1011.1    0.00 
 115    8:20   0.12   56.1    90    2.2    72     8.9   1011.1    0.00 
 115    8:30   0.10   56.1    88    3.7    60     9.6   1011.3    0.00 
 115    8:40   0.11   56.2    85    3.6   104     9.0   1011.3    0.00 
 115    8:50   0.13   55.9    85    3.8    85    12.2   1011.3    0.01 
 115    9:00   0.12   55.9    84    4.8    69    11.7   1011.3    0.00 
 115    9:10   0.38   56.0    86    4.6   119    12.6   1011.5    0.00 
 115    9:20   0.64   55.4    86    5.5    79    13.7   1011.5    0.00 
 115    9:30   0.77   55.6    85    5.4    80    14.9   1011.5    0.00 
 115    9:40   0.59   55.4    85    5.7    74    15.1   1011.6    0.00 
 115    9:50   0.64   55.6    84    5.5    78    15.5   1011.7    0.00 
 115   10:00   0.75   55.7    82    6.1    72    16.8   1011.6    0.00 
 115   10:10   0.85   56.1    80    5.8    76    15.1   1011.5    0.00 
 115   10:20   0.89   57.0    78    5.0    81    12.3   1011.5    0.00 
 115   10:30   0.84   57.5    77    4.6   114    10.3   1011.6    0.00 
 115   10:40   0.70   57.3    78    6.3   128    14.9   1011.8    0.00 
 115   10:50   0.56   55.8    82    7.2    77    19.6   1012.0    0.00 
 115   11:00   0.65   54.8    84    7.8    74    20.6   1012.1    0.00 
 115   11:10   0.45   54.8    86    4.9   167    12.4   1012.1    0.00 
 115   11:20   0.37   54.7    86    4.3   140     9.9   1012.0    0.00 
 115   11:30   0.28   54.0    87    5.4   162    12.8   1012.1    0.00 
 115   11:40   0.26   53.4    88    5.5   152    12.2   1012.0    0.00 
 115   11:50   0.27   53.6    88    3.2   178     8.0   1011.9    0.00 
 115   12:00   0.38   53.8    86    4.0   169    12.8   1012.0    0.00 
 115   12:10   0.57   54.2    85    3.4    72     9.1   1012.0    0.00 
 115   12:20   0.80   55.0    81    5.6   170    10.4   1011.9    0.00 
 115   12:30   0.98   56.0    78    5.1   175    11.6   1012.0    0.00 
 115   12:40   0.82   55.8    78    5.2   161    13.1   1011.8    0.00 
 115   12:50   0.78   56.2    76    5.8   165    16.3   1012.0    0.00 
 115   13:00   0.47   55.5    77    4.3   164    11.7   1012.2    0.00 
 115   13:10   0.47   55.6    76    4.5   155     9.5   1012.2    0.00 
 115   13:20   0.83   55.7    75    5.6   149    12.0   1012.1    0.00 
 115   13:30   0.97   56.0    73    7.3   171    13.7   1012.1    0.00 
 115   13:40   0.77   56.6    72    6.0   178    15.2   1012.1    0.00 
 115   13:50   0.46   56.2    73    4.8   171    11.5   1012.3    0.00 
 115   14:00   0.53   56.0    74    5.3   171    14.6   1012.3    0.00 
 115   14:10   0.66   56.0    73    5.8   150    12.6   1012.2    0.00 
 115   14:20   0.43   55.8    72    4.9   115    12.9   1012.3    0.00 
 115   14:30   0.73   56.1    72    6.3   163    16.7   1012.2    0.00 
 115   14:40   0.82   56.4    72    6.0   136    13.1   1012.0    0.00 
 115   14:50   0.78   57.2    70    5.9   176    12.3   1011.8    0.00 
 115   15:00   0.69   57.9    69    4.9   169    18.7   1011.8    0.00 
 115   15:10   0.65   58.0    67    3.9   176    11.3   1011.9    0.00 
 115   15:20   0.61   58.0    68    4.4   179    16.2   1012.0    0.00 
 115   15:30   0.64   57.5    69    5.1    76    13.2   1012.2    0.00 
 115   15:40   0.63   57.2    69    5.0   108    15.3   1012.2    0.00 
 115   15:50   0.59   57.3    68    6.2    62    17.8   1012.3    0.00 
 115   16:00   0.56   56.8    69    4.8    81    16.6   1012.3    0.00 
 115   16:10   0.53   57.3    69    4.8   140    10.0   1012.3    0.00 
 115   16:20   0.49   57.3    70    5.4   182    12.9   1012.2    0.00 
 115   16:30   0.46   57.5    69    5.4   186    13.6   1012.2    0.00 
 115   16:40   0.42   56.9    69    6.8   173    14.2   1012.2    0.00 
 115   16:50   0.38   56.9    69    3.7   191    17.1   1012.2    0.00 
 115   17:00   0.35   57.5    68    5.0   120    17.0   1012.3    0.00 
 115   17:10   0.31   57.0    69    4.9   112    12.6   1012.3    0.00 
 115   17:20   0.21   56.4    69    5.3    74    21.0   1012.3    0.00 
 115   17:30   0.06   55.9    70    3.6   106     9.8   1012.2    0.00 
 115   17:40   0.05   55.1    71    5.7    83    16.3   1012.4    0.00 
 115   17:50   0.04   54.8    72    7.7    74    17.7   1012.7    0.00 
 115   18:00   0.04   54.5    74    5.9    55    16.1   1012.9    0.00 
 115   18:10   0.03   54.4    74    5.2    63    14.0   1013.1    0.00 
 115   18:20   0.03   54.2    74    6.8    67    19.6   1013.2    0.00 
 115   18:30   0.01   54.1    74    8.8    65    17.6   1013.3    0.00 
 115   18:40   0.01   54.0    74    8.1    60    18.0   1013.5    0.00 
 115   18:50   0.01   54.0    74    7.2    70    18.3   1013.5    0.00 
 115   19:00   0.00   53.9    74    5.2    79    18.6   1013.7    0.00 
 115   19:10   0.00   53.7    74    5.6    67    12.8   1013.7    0.00 
 115   19:20   0.00   53.7    73    3.3    83     9.3   1013.7    0.00 
 115   19:30   0.00   53.6    73    2.3    79     6.7   1013.9    0.00 
 115   19:40   0.00   53.4    73    3.2    68     8.0   1014.1    0.00 
 115   19:50   0.00   53.3    73    4.5    60    13.8   1014.2    0.00 
 115   20:00   0.00   53.2    72    3.9    68     9.8   1014.3    0.00 
 115   20:10   0.00   53.1    71    6.2    63    16.6   1014.4    0.00 
 115   20:20   0.00   53.1    70    5.0    56    11.8   1014.4    0.00 
 115   20:30   0.00   53.0    70    1.5    93     5.6   1014.4    0.00 
 115   20:40   0.00   51.6    76    0.2    56     2.0   1014.5    0.00 
 115   20:50   0.00   50.4    80    1.5    68    10.0   1014.6    0.00 
 115   21:00   0.00   51.5    74    3.4    45     9.7   1014.7    0.00 
 115   21:10   0.00   52.9    67    4.4    67    10.6   1014.8    0.00 
 115   21:20   0.00   53.1    65    5.9    56    12.4   1014.9    0.00 
 115   21:30   0.00   53.4    64    6.2    60    18.9   1014.9    0.00 
 115   21:40   0.00   53.1    64    3.2    64    11.8   1014.9    0.00 
 115   21:50   0.00   50.8    73    1.6    24     3.7   1015.0    0.00 
 115   22:00   0.00   49.4    78    1.6    45     3.3   1015.0    0.00 
 115   22:10   0.00   48.6    81    2.2    48     7.2   1015.0    0.00 
 115   22:20   0.00   49.8    75    2.3    42     7.9   1014.9    0.00 
 115   22:30   0.00   49.5    76    2.0    25     4.6   1014.9    0.00 
 115   22:40   0.00   49.2    77    1.3    53     5.0   1014.9    0.00 
 115   22:50   0.00   50.2    73    2.2    46    11.1   1015.0    0.00 
 115   23:00   0.00   49.0    76    1.7    56     3.9   1014.9    0.00 
 115   23:10   0.00   48.2    77    1.3    63     3.3   1014.9    0.00 
 115   23:20   0.00   47.5    79    1.4    50     4.1   1015.0    0.00 
 115   23:30   0.00   47.0    81    2.4    44    10.4   1014.9    0.00 
 115   23:40   0.00   47.7    79    1.8    66     5.6   1014.8    0.00 
 115   23:50   0.00   47.6    78    1.9    55     3.8   1014.8    0.00 
 116    0:00   0.00   47.1    79    2.0    36     5.3   1014.8    0.00 
 116    0:10   0.00   46.5    81    1.5    59     4.4   1014.9    0.00 
 116    0:20   0.00   46.5    81    1.9    68     4.9   1014.9    0.00 
 116    0:30   0.00   46.6    80    2.1    70    10.8   1014.9    0.00 
 116    0:40   0.00   48.0    76    1.6    31     3.3   1014.8    0.00 
 116    0:50   0.00   47.4    78    1.8    27     4.1   1014.8    0.00 
 116    1:00   0.00   47.0    78    1.5    60     3.9   1014.8    0.00 
 116    1:10   0.00   46.7    79    1.7    40     4.3   1014.8    0.00 
 116    1:20   0.00   46.5    80    2.0    57     4.2   1014.8    0.00 
 116    1:30   0.00   46.1    81    2.5    54     5.7   1014.8    0.00 
 116    1:40   0.00   46.4    79    2.3    40     5.4   1014.8    0.00 
 116    1:50   0.00   45.8    81    2.6    51     5.5   1014.8    0.00 
 116    2:00   0.00   45.5    82    1.6    59     4.0   1014.7    0.00 
 116    2:10   0.00   45.4    82    2.2    57     4.4   1014.7    0.00 
 116    2:20   0.00   45.2    83    2.2    44     4.9   1014.7    0.00 
 116    2:30   0.00   45.1    83    2.3    50     4.6   1014.7    0.00 
 116    2:40   0.00   45.0    83    2.4    39     7.2   1014.7    0.00 
 116    2:50   0.00   45.0    83    1.7    61     5.1   1014.7    0.00 
 116    3:00   0.00   44.8    83    2.2    61     5.3   1014.7    0.00 
 116    3:10   0.00   44.7    83    2.9    58     5.5   1014.6    0.00 
 116    3:20   0.00   44.5    83    2.2    39     5.9   1014.7    0.00 
 116    3:30   0.00   44.5    83    2.0    54     5.1   1014.8    0.00 
 116    3:40   0.00   44.5    83    2.1    49     4.5   1014.8    0.00 
 116    3:50   0.00   44.4    83    2.0    66     4.3   1014.9    0.00 
 116    4:00   0.00   44.4    82    2.0    45     5.0   1014.9    0.00 
 116    4:10   0.00   44.4    82    2.5    35     6.1   1014.8    0.00 
 116    4:20   0.00   44.3    82    2.8    34     7.2   1014.9    0.00 
 116    4:30   0.00   44.2    82    2.1    58     3.9   1014.9    0.00 
 116    4:40   0.00   44.1    82    2.6    40     5.0   1015.0    0.00 
 116    4:50   0.00   44.1    83    2.3    24     5.6   1015.0    0.00 
 116    5:00   0.00   44.2    83    2.7    54     5.3   1015.0    0.00 
 116    5:10   0.00   44.3    82    2.8    59     6.5   1015.1    0.00 

Return to Big Creek Reserve Entrance graphs page.


Western Regional Climate Center,wrcc@dri.edu